world map with KUA marked

KUA - Airport

This information may not be accurate or current and is not valid for navigation or flight planning. No warranty of fitness for any purpose is made or implied.

flag of Penang (Pahang)flag of Malaysia

Donate via PayPal

Additional information is available on the NEW Great Circle Mapper

Location
City:  Kuantan, Penang (Pahang), Malaysia
Name:Sultan Abmad Shah Airport (Pedang Geroda Airport)
ICAO / IATA:WMKD / KUA

Details
Type:Airport (Aerodrome, Airfield)
Use:Military
Latitude:3°46'31"N (3.775389)
Longitude:103°12'33"E (103.209056)
Datum:WGS 1984
Elevation:58 ft (18 m)
Runways:1
Longest:9200 × 150 ft (2804 × 45.5 m)

Time
Timezone:UTC+8 (DST+10)
Local Time:

Weather
METAR:WMKD  160500Z 17005KT 100V250 9999 FEW018TCU SCT160 BKN280 32/26 Q1010 NOSIG
TAF:WMKD  (expired)

Related Locations
Nearby:
Farthest:SPGB: 12379 mi / 19923 km
Galilea, AMA, PE

Find:

   beyond  
but within

Other Information
Maps:
Sources:

  


 


Great Circle Mapper   Great Circle Mapper
Great Circle Mapper FAQ   Great Circle Mapper FAQ
  Karl's Home Page
KLSē   KLSē Home
   GC on Facebook
Airlines of the World   Airlines of the World
Donate via PayPal


Copyright © 2004-2018, Karl L. Swartz. All rights reserved.
All trademarks mentioned herein belong to their respective owners.

Please see credits for attribution and copyright information.

Karl Swartz <karl@kls2.com>
  Powered by FreeBSD
Valid HTML 4.01!
Labeled with ICRA
hCard Microformat
Geo Microformat